Time;durP1;ratioP1;P1;durP2;ratioP2;P2;SDS_P1;SDS_P2;PMS_P1;PMS_P2;Temp;Humidity;BMP_temperature;BMP_pressure;BME280_temperature;BME280_humidity;BME280_pressure;Samples;Min_cycle;Max_cycle;Signal;HPM_P1;HPM_P2
2023/10/14 00:00:47;;;;;;;10.07;6.20;;;13.20;99.90;;;;;;5149122;28;20208;-66
2023/10/14 00:03:32;;;;;;;9.80;5.50;;;13.10;99.90;;;;;;5168015;28;20034;-66
2023/10/14 00:06:12;;;;;;;9.85;5.20;;;12.90;99.90;;;;;;5170939;28;20125;-67
2023/10/14 00:09:11;;;;;;;7.32;5.10;;;12.90;99.90;;;;;;5125890;28;20038;-66
2023/10/14 00:11:51;;;;;;;9.70;5.53;;;12.80;99.90;;;;;;5116488;28;20367;-66
2023/10/14 00:14:24;;;;;;;8.02;5.15;;;12.70;99.90;;;;;;5127552;28;20050;-65
2023/10/14 00:16:56;;;;;;;10.98;6.30;;;12.80;99.90;;;;;;5133037;28;20080;-67
2023/10/14 00:19:30;;;;;;;10.65;5.35;;;12.70;99.90;;;;;;5164720;28;20053;-65
2023/10/14 00:22:04;;;;;;;13.52;6.60;;;12.70;99.90;;;;;;5110854;28;20054;-65
2023/10/14 00:24:39;;;;;;;8.13;5.10;;;12.60;99.90;;;;;;5125743;28;20507;-66
2023/10/14 00:27:12;;;;;;;11.15;6.60;;;12.60;99.90;;;;;;5167502;28;20089;-66
2023/10/14 00:29:43;;;;;;;12.07;6.15;;;12.50;99.90;;;;;;5106081;28;20041;-65
2023/10/14 00:32:17;;;;;;;11.82;6.68;;;12.50;99.90;;;;;;5161290;28;20042;-65
2023/10/14 00:34:51;;;;;;;13.05;7.05;;;12.50;99.90;;;;;;5154585;28;20037;-67
2023/10/14 00:37:24;;;;;;;11.93;6.35;;;12.60;99.90;;;;;;5111296;28;20288;-66
2023/10/14 00:40:10;;;;;;;18.73;7.15;;;12.50;99.90;;;;;;5135967;28;20037;-66
2023/10/14 00:42:50;;;;;;;10.65;6.90;;;12.50;99.90;;;;;;5118993;28;20049;-66
2023/10/14 00:45:21;;;;;;;10.93;6.28;;;12.50;99.90;;;;;;5154913;28;20038;-68
2023/10/14 00:47:53;;;;;;;15.27;6.65;;;12.40;99.90;;;;;;5151007;28;20040;-67
2023/10/14 00:50:33;;;;;;;15.68;7.97;;;12.30;99.90;;;;;;5133453;28;20645;-65
2023/10/14 00:53:05;;;;;;;14.18;6.25;;;12.50;99.90;;;;;;5141336;28;20037;-65
2023/10/14 00:55:53;;;;;;;15.52;6.78;;;12.40;99.90;;;;;;5130069;28;20106;-67
2023/10/14 00:58:27;;;;;;;11.05;7.03;;;12.30;99.90;;;;;;5154168;28;20088;-66
2023/10/14 01:03:43;;;;;;;12.57;6.70;;;12.10;99.90;;;;;;5180452;28;19996;-88
2023/10/14 01:06:53;;;;;;;14.25;7.38;;;12.20;99.90;;;;;;5168976;28;20060;-91
2023/10/14 01:09:41;;;;;;;12.82;7.22;;;12.00;99.90;;;;;;5172407;28;20040;-90
2023/10/14 01:15:10;;;;;;;14.20;7.45;;;12.00;99.90;;;;;;5157988;28;20113;-91
2023/10/14 01:17:42;;;;;;;10.57;6.75;;;12.00;99.90;;;;;;5174507;28;20037;-90
2023/10/14 01:22:51;;;;;;;11.60;6.72;;;12.00;99.90;;;;;;5160701;28;20128;-89
2023/10/14 01:25:31;;;;;;;12.55;6.13;;;12.00;99.90;;;;;;5182104;28;20034;-88
2023/10/14 01:28:12;;;;;;;10.10;5.90;;;11.90;99.90;;;;;;5162372;28;20038;-90
2023/10/14 01:31:31;;;;;;;16.73;6.70;;;11.90;99.90;;;;;;5143818;28;20042;-89
2023/10/14 01:34:07;;;;;;;14.23;6.90;;;11.90;99.90;;;;;;5156057;28;20039;-90
2023/10/14 01:36:41;;;;;;;10.90;6.57;;;11.90;99.90;;;;;;5173588;28;20042;-90
2023/10/14 01:39:21;;;;;;;10.02;6.57;;;11.80;99.90;;;;;;5173622;28;20038;-91
2023/10/14 01:41:56;;;;;;;11.30;5.88;;;11.80;99.90;;;;;;5158318;28;20098;-90
2023/10/14 01:44:31;;;;;;;10.30;6.50;;;11.70;99.90;;;;;;5173857;28;20041;-89
2023/10/14 01:47:04;;;;;;;8.88;5.57;;;11.70;99.90;;;;;;5141522;28;20195;-91
2023/10/14 01:49:43;;;;;;;10.82;6.35;;;11.70;99.90;;;;;;5158561;28;20042;-89
2023/10/14 01:52:19;;;;;;;12.60;6.10;;;11.70;99.90;;;;;;5175131;28;20034;-90
2023/10/14 01:54:55;;;;;;;11.27;6.65;;;11.60;99.90;;;;;;5171226;28;20036;-89
2023/10/14 01:57:29;;;;;;;10.15;6.00;;;11.50;99.90;;;;;;5141577;28;20053;-90
2023/10/14 02:03:16;;;;;;;10.13;6.25;;;11.40;99.90;;;;;;5185613;28;20042;-91
2023/10/14 02:05:58;;;;;;;8.50;6.25;;;11.40;99.90;;;;;;5173222;28;20054;-89
2023/10/14 02:08:36;;;;;;;9.23;5.97;;;11.40;99.90;;;;;;5178162;28;20125;-90
2023/10/14 02:11:08;;;;;;;11.43;6.30;;;11.40;99.90;;;;;;5147516;28;20038;-92
2023/10/14 02:13:39;;;;;;;10.05;5.53;;;11.40;99.90;;;;;;5162897;28;20040;-90
2023/10/14 02:20:19;;;;;;;;;;;11.40;99.90;;;;;;5162003;28;20034;-90
2023/10/14 02:22:57;;;;;;;10.68;6.20;;;11.40;99.90;;;;;;5162838;28;19905;-93
2023/10/14 02:25:32;;;;;;;11.98;6.03;;;11.40;99.90;;;;;;5171467;28;20034;-92
2023/10/14 02:28:06;;;;;;;8.40;5.55;;;11.40;99.90;;;;;;5161822;28;20171;-90
2023/10/14 02:30:51;;;;;;;10.07;5.37;;;11.30;99.90;;;;;;5131009;28;20042;-91
2023/10/14 02:33:23;;;;;;;;;;;11.30;99.90;;;;;;5179783;28;20044;-91
2023/10/14 02:35:59;;;;;;;12.57;5.85;;;11.30;99.90;;;;;;5163675;28;20043;-91
2023/10/14 02:38:36;;;;;;;7.90;5.47;;;11.40;99.90;;;;;;5179256;28;20232;-91
2023/10/14 02:41:15;;;;;;;10.52;6.70;;;11.30;99.90;;;;;;5180486;28;20038;-90
2023/10/14 02:43:50;;;;;;;14.57;7.00;;;11.40;99.90;;;;;;5162360;28;20085;-90
2023/10/14 02:46:26;;;;;;;10.77;5.75;;;11.40;99.90;;;;;;5178927;28;20030;-90
2023/10/14 02:49:06;;;;;;;10.27;5.43;;;11.40;99.90;;;;;;5145818;28;20036;-90
2023/10/14 02:51:44;;;;;;;12.90;6.22;;;11.30;99.90;;;;;;5181547;28;20060;-91
2023/10/14 02:54:33;;;;;;;12.32;5.93;;;11.30;99.90;;;;;;5180922;28;20040;-91
2023/10/14 02:57:13;;;;;;;9.77;5.63;;;11.30;99.90;;;;;;5180284;28;20049;-90
2023/10/14 02:59:46;;;;;;;8.43;5.60;;;11.20;99.90;;;;;;5133234;28;20136;-91
2023/10/14 03:02:39;;;;;;;10.85;6.32;;;11.20;99.90;;;;;;5171683;28;20054;-90
2023/10/14 03:08:12;;;;;;;10.40;5.95;;;11.30;99.90;;;;;;5170141;28;20157;-90
2023/10/14 03:10:59;;;;;;;9.32;5.32;;;11.30;99.90;;;;;;5175376;28;20035;-91
2023/10/14 03:13:33;;;;;;;11.82;5.50;;;11.30;99.90;;;;;;5158175;28;20050;-91
2023/10/14 03:16:18;;;;;;;15.07;5.95;;;11.30;99.90;;;;;;5177025;28;20040;-90
2023/10/14 03:18:56;;;;;;;13.27;5.45;;;11.30;99.90;;;;;;5164377;28;20026;-90
2023/10/14 03:21:31;;;;;;;7.75;5.45;;;11.30;99.90;;;;;;5178718;28;20030;-92
2023/10/14 03:24:07;;;;;;;8.45;4.82;;;11.20;99.90;;;;;;5180199;28;20053;-90
2023/10/14 03:26:47;;;;;;;11.52;6.03;;;11.20;99.90;;;;;;5157593;28;20072;-90
2023/10/14 03:29:22;;;;;;;8.55;5.47;;;11.10;99.90;;;;;;5177643;28;20075;-91
2023/10/14 03:31:55;;;;;;;9.88;5.82;;;11.00;99.90;;;;;;5161834;28;20034;-89
2023/10/14 03:34:33;;;;;;;10.93;6.25;;;10.90;99.90;;;;;;5161046;28;20252;-90
2023/10/14 03:37:21;;;;;;;8.48;4.65;;;10.90;99.90;;;;;;5177471;28;20064;-91
2023/10/14 03:43:15;;;;;;;7.72;4.45;;;10.80;99.90;;;;;;5147809;28;20108;-90
2023/10/14 03:46:23;;;;;;;10.57;5.95;;;10.80;99.90;;;;;;5133925;28;20086;-90
2023/10/14 03:48:48;;;;;;;8.63;5.15;;;10.80;99.90;;;;;;5148310;28;20079;-91
2023/10/14 03:51:27;;;;;;;9.82;4.68;;;10.90;99.90;;;;;;5173495;28;20044;-90
2023/10/14 03:54:08;;;;;;;11.52;5.85;;;10.90;99.90;;;;;;5181791;28;20048;-90
2023/10/14 04:00:48;;;;;;;10.73;6.35;;;10.80;99.90;;;;;;5163535;28;20034;-89
2023/10/14 04:03:41;;;;;;;8.32;5.20;;;10.70;99.90;;;;;;5158160;28;20044;-90
2023/10/14 04:06:35;;;;;;;8.85;5.30;;;10.70;99.90;;;;;;5171447;28;20061;-89
2023/10/14 04:09:24;;;;;;;6.93;5.22;;;10.60;99.90;;;;;;5181807;28;20081;-90
2023/10/14 04:11:59;;;;;;;8.27;5.35;;;10.60;99.90;;;;;;5180868;28;20044;-90
2023/10/14 04:14:35;;;;;;;9.00;5.40;;;10.60;99.90;;;;;;5164232;28;20041;-91
2023/10/14 04:17:20;;;;;;;9.68;5.47;;;10.60;99.90;;;;;;5178047;28;20200;-90
2023/10/14 04:22:41;;;;;;;7.78;5.80;;;10.70;99.90;;;;;;5164059;28;20034;-90
2023/10/14 04:28:30;;;;;;;10.45;6.10;;;10.70;99.90;;;;;;5111327;29;20040;-90
2023/10/14 04:31:16;;;;;;;11.90;6.20;;;10.80;99.90;;;;;;5084991;29;20040;-89
2023/10/14 04:33:52;;;;;;;12.45;6.55;;;10.90;99.90;;;;;;5075322;29;20055;-88
2023/10/14 04:39:15;;;;;;;10.65;6.03;;;10.90;99.90;;;;;;5076406;29;20068;-90
2023/10/14 04:42:21;;;;;;;12.05;6.20;;;10.80;99.90;;;;;;5090426;29;20058;-90
2023/10/14 04:44:59;;;;;;;10.73;6.22;;;10.70;99.90;;;;;;5094095;29;20032;-89
2023/10/14 04:47:47;;;;;;;10.95;6.45;;;10.60;99.90;;;;;;5073034;29;20038;-89
2023/10/14 04:50:23;;;;;;;10.32;6.20;;;10.60;99.90;;;;;;5075493;29;20103;-90
2023/10/14 04:53:00;;;;;;;12.30;6.80;;;10.70;99.90;;;;;;5057785;29;20111;-91
2023/10/14 04:56:01;;;;;;;10.45;6.65;;;10.80;99.90;;;;;;5092781;29;20078;-90
2023/10/14 04:58:32;;;;;;;12.52;7.22;;;10.80;99.90;;;;;;5138343;23;20117;-69
2023/10/14 05:01:10;;;;;;;17.50;7.95;;;10.80;99.90;;;;;;5134938;28;20046;-66
2023/10/14 05:03:43;;;;;;;13.27;7.40;;;10.80;99.90;;;;;;5133532;28;20033;-67
2023/10/14 05:06:17;;;;;;;12.77;7.17;;;10.80;99.90;;;;;;5136809;28;20045;-69
2023/10/14 05:08:56;;;;;;;12.13;7.32;;;10.80;99.90;;;;;;5172156;28;20270;-67
2023/10/14 05:11:40;;;;;;;14.38;7.45;;;10.90;99.90;;;;;;5170649;28;20076;-67
2023/10/14 05:14:14;;;;;;;15.20;8.18;;;10.90;99.90;;;;;;5147866;28;20361;-67
2023/10/14 05:19:35;;;;;;;15.50;8.63;;;11.10;99.90;;;;;;5151495;28;20068;-69
2023/10/14 05:22:23;;;;;;;14.85;8.00;;;11.10;99.90;;;;;;5158278;28;20046;-68
2023/10/14 05:25:04;;;;;;;14.73;7.38;;;11.10;99.90;;;;;;5170484;28;20041;-66
2023/10/14 05:27:45;;;;;;;15.90;7.82;;;11.10;99.90;;;;;;5168685;28;20050;-68
2023/10/14 05:30:21;;;;;;;13.18;8.55;;;11.10;99.90;;;;;;5168991;28;20052;-66
2023/10/14 05:32:53;;;;;;;14.07;7.85;;;11.10;99.90;;;;;;5159572;28;20045;-69
2023/10/14 05:35:25;;;;;;;13.57;7.45;;;11.10;99.90;;;;;;5138319;28;20277;-66
2023/10/14 05:37:59;;;;;;;13.45;6.90;;;11.10;99.90;;;;;;5171724;28;20041;-68
2023/10/14 05:40:30;;;;;;;11.70;6.47;;;11.10;99.90;;;;;;5154275;28;20204;-68
2023/10/14 05:43:02;;;;;;;14.68;8.40;;;11.10;99.90;;;;;;5151099;28;20049;-66
2023/10/14 05:45:37;;;;;;;19.05;8.20;;;11.20;99.90;;;;;;5167886;28;20030;-68
2023/10/14 05:48:09;;;;;;;17.98;9.50;;;11.50;99.90;;;;;;5171293;28;20053;-65
2023/10/14 05:50:45;;;;;;;17.38;10.75;;;11.80;99.90;;;;;;5169358;28;20117;-66
2023/10/14 05:53:20;;;;;;;31.30;12.45;;;12.00;99.90;;;;;;5137786;28;20060;-65
2023/10/14 05:56:14;;;;;;;30.15;11.63;;;12.20;99.90;;;;;;5135519;28;20076;-68
2023/10/14 05:58:45;;;;;;;30.48;13.23;;;12.40;99.90;;;;;;5151636;28;20042;-68
2023/10/14 06:01:17;;;;;;;28.13;13.85;;;12.50;99.90;;;;;;5131644;28;20521;-68
2023/10/14 06:03:51;;;;;;;24.23;12.05;;;12.60;99.90;;;;;;5169034;28;20042;-68
2023/10/14 06:06:23;;;;;;;;;;;12.80;99.90;;;;;;5172312;28;20044;-66
2023/10/14 06:09:02;;;;;;;25.73;12.32;;;12.80;99.90;;;;;;5172402;28;19915;-66
2023/10/14 06:11:34;;;;;;;29.90;13.57;;;13.00;99.90;;;;;;5153617;28;20497;-67
2023/10/14 06:14:09;;;;;;;25.48;12.52;;;13.10;99.90;;;;;;5149141;28;20347;-67
2023/10/14 06:16:50;;;;;;;24.20;12.18;;;13.40;99.90;;;;;;5121108;28;20049;-65
2023/10/14 06:19:22;;;;;;;27.63;12.70;;;13.40;99.90;;;;;;5170899;28;20033;-66
2023/10/14 06:21:56;;;;;;;35.75;11.77;;;13.20;99.90;;;;;;5164055;28;20054;-67
2023/10/14 06:24:28;;;;;;;27.67;11.98;;;13.30;99.90;;;;;;5136986;28;20411;-68
2023/10/14 06:27:20;;;;;;;28.92;11.88;;;13.30;99.90;;;;;;5163891;28;20072;-63
2023/10/14 06:29:57;;;;;;;20.13;10.95;;;13.40;99.90;;;;;;5150607;28;20102;-67
2023/10/14 06:32:31;;;;;;;18.13;11.38;;;13.50;99.90;;;;;;5142111;28;20044;-67
2023/10/14 06:35:08;;;;;;;25.40;13.30;;;13.70;99.90;;;;;;5151568;28;20050;-67
2023/10/14 06:37:45;;;;;;;18.95;10.88;;;13.90;99.90;;;;;;5152911;28;20076;-67
2023/10/14 06:40:22;;;;;;;23.48;10.98;;;14.10;99.90;;;;;;5107749;28;20042;-68
2023/10/14 06:42:56;;;;;;;17.75;10.88;;;14.20;99.90;;;;;;5142301;28;20360;-68
2023/10/14 06:45:31;;;;;;;18.58;10.70;;;14.00;99.90;;;;;;5161416;28;20038;-69
2023/10/14 06:48:05;;;;;;;;;;;14.10;99.90;;;;;;5157374;28;20033;-66
2023/10/14 06:50:42;;;;;;;17.23;10.38;;;14.10;99.90;;;;;;5174076;28;20179;-67
2023/10/14 06:53:15;;;;;;;17.55;11.25;;;14.20;99.90;;;;;;5151638;28;20056;-67
2023/10/14 06:55:50;;;;;;;14.87;9.90;;;14.20;99.90;;;;;;5152523;28;20034;-68
2023/10/14 06:58:28;;;;;;;;;;;14.30;99.90;;;;;;5153710;28;20241;-66
2023/10/14 07:01:03;;;;;;;16.25;10.18;;;14.40;99.90;;;;;;5168949;28;19916;-68
2023/10/14 07:03:35;;;;;;;17.77;10.48;;;14.50;99.90;;;;;;5139845;28;20270;-66
2023/10/14 07:06:09;;;;;;;21.92;10.68;;;14.50;99.90;;;;;;5154073;28;20044;-65
2023/10/14 07:08:48;;;;;;;;;;;14.60;99.90;;;;;;5173302;28;20034;-67
2023/10/14 07:11:24;;;;;;;16.67;9.82;;;14.60;99.90;;;;;;5175224;28;19915;-66
2023/10/14 07:14:03;;;;;;;14.55;8.95;;;14.70;99.90;;;;;;5137678;28;20046;-69
2023/10/14 07:16:35;;;;;;;18.00;9.88;;;14.90;99.90;;;;;;5141942;28;20067;-68
2023/10/14 07:19:11;;;;;;;16.25;10.02;;;15.00;99.90;;;;;;5175055;28;20029;-70
2023/10/14 07:21:42;;;;;;;14.23;8.98;;;15.20;99.90;;;;;;5140966;28;20041;-69
2023/10/14 07:24:17;;;;;;;16.52;8.60;;;15.30;99.90;;;;;;5174702;28;20061;-69
2023/10/14 07:26:48;;;;;;;15.35;9.60;;;15.60;99.90;;;;;;5148929;28;20064;-67
2023/10/14 07:29:22;;;;;;;14.35;9.18;;;15.80;99.90;;;;;;5107195;28;20042;-66
2023/10/14 07:31:58;;;;;;;14.07;8.80;;;16.00;99.90;;;;;;5152568;28;20040;-67
2023/10/14 07:34:32;;;;;;;16.05;8.77;;;16.30;99.90;;;;;;5158734;28;20034;-67
2023/10/14 07:37:10;;;;;;;19.30;9.80;;;16.60;99.90;;;;;;5143929;28;20037;-67
2023/10/14 07:39:52;;;;;;;16.27;8.90;;;16.90;99.90;;;;;;5157140;28;20036;-66
2023/10/14 07:42:29;;;;;;;16.67;10.63;;;17.10;20.10;;;;;;5166697;28;20030;-67
2023/10/14 07:45:03;;;;;;;16.63;10.15;;;17.20;1.00;;;;;;5142678;28;20026;-66
2023/10/14 07:47:40;;;;;;;23.75;9.77;;;17.40;1.00;;;;;;5149558;28;20044;-68
2023/10/14 07:50:16;;;;;;;15.70;10.52;;;17.60;1.00;;;;;;5152408;28;20046;-68
2023/10/14 07:52:54;;;;;;;15.75;9.57;;;17.70;1.00;;;;;;5125944;28;20038;-67
2023/10/14 07:55:32;;;;;;;20.08;10.55;;;17.80;1.00;;;;;;5147788;28;20034;-69
2023/10/14 07:58:08;;;;;;;18.63;10.38;;;17.90;1.00;;;;;;5132288;28;20239;-69
2023/10/14 08:00:50;;;;;;;30.52;11.20;;;18.00;1.00;;;;;;5160181;28;20058;-69
2023/10/14 08:03:28;;;;;;;17.60;10.85;;;18.10;1.00;;;;;;5154838;28;20221;-66
2023/10/14 08:06:05;;;;;;;19.05;8.95;;;18.10;1.00;;;;;;5132613;28;20048;-68
2023/10/14 08:08:50;;;;;;;18.40;9.55;;;18.40;1.00;;;;;;5137675;28;20038;-70
2023/10/14 08:11:28;;;;;;;15.63;9.75;;;18.80;1.00;;;;;;5160986;28;20034;-68
2023/10/14 08:13:59;;;;;;;16.20;9.30;;;19.00;1.00;;;;;;5155025;28;20532;-68
2023/10/14 08:16:31;;;;;;;20.85;10.63;;;19.20;1.00;;;;;;5168783;28;20100;-68
2023/10/14 08:19:06;;;;;;;14.80;9.65;;;19.10;1.00;;;;;;5172635;28;20021;-70
2023/10/14 08:21:40;;;;;;;17.27;8.68;;;19.40;1.00;;;;;;5144219;28;20050;-67
2023/10/14 08:24:15;;;;;;;;;;;19.30;1.00;;;;;;5139690;28;20561;-67
2023/10/14 08:26:47;;;;;;;13.07;8.43;;;19.40;1.00;;;;;;5147901;28;19922;-66
2023/10/14 08:29:20;;;;;;;16.50;9.32;;;19.80;1.00;;;;;;5161243;28;20041;-69
2023/10/14 08:31:53;;;;;;;15.93;10.02;;;20.10;99.90;;;;;;5144080;28;20036;-69
2023/10/14 08:34:25;;;;;;;17.53;9.83;;;20.20;1.00;;;;;;5151731;28;20037;-69
2023/10/14 08:36:56;;;;;;;16.42;8.35;;;20.00;99.90;;;;;;5121374;28;20239;-68
2023/10/14 08:39:31;;;;;;;16.17;9.32;;;20.20;99.90;;;;;;5171575;28;20470;-68
2023/10/14 08:42:04;;;;;;;14.20;8.00;;;20.40;99.90;;;;;;5151813;28;20038;-68
2023/10/14 08:44:44;;;;;;;13.15;8.07;;;20.60;14.80;;;;;;5145159;28;20046;-68
2023/10/14 08:47:16;;;;;;;14.45;8.27;;;20.70;1.00;;;;;;5144700;28;20370;-70
2023/10/14 08:49:48;;;;;;;13.30;8.38;;;20.60;1.00;;;;;;5154601;28;20050;-68
2023/10/14 08:52:26;;;;;;;17.85;8.57;;;20.60;1.00;;;;;;5167747;28;20042;-67
2023/10/14 08:54:59;;;;;;;14.15;7.97;;;20.70;1.00;;;;;;5166748;28;20602;-67
2023/10/14 08:57:39;;;;;;;16.20;9.07;;;20.80;1.00;;;;;;5136862;28;20049;-68
2023/10/14 09:00:20;;;;;;;13.95;8.73;;;21.10;99.90;;;;;;5161658;28;20037;-68
2023/10/14 09:02:57;;;;;;;12.05;6.93;;;21.40;99.90;;;;;;5145903;28;20060;-69
2023/10/14 09:05:38;;;;;;;12.98;7.55;;;21.80;99.90;;;;;;5129656;28;20128;-69
2023/10/14 09:08:14;;;;;;;10.57;6.60;;;22.10;1.00;;;;;;5164163;28;20028;-68
2023/10/14 09:10:54;;;;;;;14.25;8.38;;;22.50;1.00;;;;;;5165325;28;20562;-67
2023/10/14 09:13:28;;;;;;;10.73;7.22;;;22.50;99.90;;;;;;5169133;28;20029;-69
2023/10/14 09:16:00;;;;;;;14.43;6.43;;;23.00;99.90;;;;;;5137607;28;20057;-69
2023/10/14 09:18:32;;;;;;;14.63;8.30;;;23.40;99.90;;;;;;5149124;28;20046;-68
2023/10/14 09:21:05;;;;;;;10.23;6.50;;;24.00;1.00;;;;;;5169386;28;20042;-69
2023/10/14 09:23:39;;;;;;;13.77;7.78;;;24.20;1.00;;;;;;5114273;28;20049;-69
2023/10/14 09:26:17;;;;;;;12.20;7.30;;;24.50;99.90;;;;;;5153252;28;20559;-68
2023/10/14 09:28:55;;;;;;;11.55;7.35;;;24.40;99.90;;;;;;5149886;28;20030;-68
2023/10/14 09:31:36;;;;;;;12.20;6.68;;;24.50;99.90;;;;;;5164521;28;20048;-69
2023/10/14 09:34:27;;;;;;;13.13;7.03;;;24.80;99.90;;;;;;5159474;28;20038;-68
2023/10/14 09:37:10;;;;;;;10.25;5.90;;;25.70;1.00;;;;;;5151296;28;20037;-69
2023/10/14 09:39:49;;;;;;;8.90;5.35;;;26.30;1.00;;;;;;5121638;28;20049;-67
2023/10/14 09:42:24;;;;;;;9.88;6.00;;;27.00;1.00;;;;;;5146185;28;20469;-69
2023/10/14 09:45:09;;;;;;;10.40;5.20;;;27.60;1.00;;;;;;5172592;28;20063;-69
2023/10/14 09:47:45;;;;;;;11.25;6.00;;;26.90;1.00;;;;;;5141938;28;20033;-68
2023/10/14 09:50:18;;;;;;;6.47;3.80;;;26.30;99.90;;;;;;5158516;28;20072;-68
2023/10/14 09:52:52;;;;;;;3.53;2.05;;;25.70;39.40;;;;;;5154966;28;20046;-66
2023/10/14 09:55:25;;;;;;;4.72;2.20;;;25.70;1.00;;;;;;5149862;28;20038;-68
2023/10/14 09:57:59;;;;;;;5.32;2.00;;;26.30;1.00;;;;;;5113699;28;20216;-69
2023/10/14 10:00:33;;;;;;;3.15;2.45;;;26.50;1.00;;;;;;5121075;28;20038;-67
2023/10/14 10:03:10;;;;;;;3.15;1.90;;;27.00;1.00;;;;;;5156687;28;20044;-66
2023/10/14 10:06:14;;;;;;;3.60;1.90;;;27.10;1.00;;;;;;5164139;28;20029;-68
2023/10/14 10:09:26;;;;;;;3.05;1.90;;;26.60;1.00;;;;;;5145214;28;20060;-68
2023/10/14 10:12:01;;;;;;;3.13;2.03;;;27.20;99.90;;;;;;5140712;28;20052;-67
2023/10/14 10:14:46;;;;;;;3.80;1.85;;;27.30;1.00;;;;;;5167441;28;20046;-67
2023/10/14 10:17:17;;;;;;;3.13;2.13;;;27.30;64.30;;;;;;5156653;28;20377;-68
2023/10/14 10:20:17;;;;;;;5.20;1.67;;;28.00;99.90;;;;;;5136636;28;20068;-66
2023/10/14 10:22:55;;;;;;;3.95;1.80;;;28.50;99.90;;;;;;5147014;28;20041;-68
2023/10/14 10:25:36;;;;;;;2.17;1.60;;;27.70;99.90;;;;;;5147233;28;20042;-67
2023/10/14 10:28:26;;;;;;;3.50;1.90;;;27.30;99.90;;;;;;5164908;28;20259;-69
2023/10/14 10:31:17;;;;;;;3.15;1.48;;;27.30;99.90;;;;;;5158538;28;20492;-67
2023/10/14 10:34:01;;;;;;;4.82;2.25;;;27.60;99.90;;;;;;5137598;28;20104;-68
2023/10/14 10:36:36;;;;;;;2.67;1.80;;;27.50;99.90;;;;;;5163565;28;20034;-67
2023/10/14 10:39:19;;;;;;;2.58;2.00;;;27.80;99.90;;;;;;5167366;28;20042;-70
2023/10/14 10:41:53;;;;;;;3.70;1.88;;;28.10;1.00;;;;;;5157132;28;20402;-67
2023/10/14 10:44:26;;;;;;;2.03;1.67;;;28.20;12.00;;;;;;5127036;28;20042;-66
2023/10/14 10:46:59;;;;;;;4.22;3.03;;;28.70;74.50;;;;;;5146966;28;20034;-68
2023/10/14 10:49:53;;;;;;;4.95;3.35;;;28.40;99.90;;;;;;5159361;28;20042;-66
2023/10/14 10:52:36;;;;;;;7.03;2.28;;;27.70;1.00;;;;;;5168355;28;20350;-71
2023/10/14 10:55:09;;;;;;;3.03;2.33;;;28.10;99.90;;;;;;5143458;28;20073;-67
2023/10/14 10:57:44;;;;;;;6.97;4.13;;;28.20;28.70;;;;;;5144463;28;20646;-66
2023/10/14 11:00:19;;;;;;;4.80;2.88;;;27.60;1.00;;;;;;5154743;28;20042;-70
2023/10/14 11:02:54;;;;;;;3.13;2.10;;;27.40;1.00;;;;;;5131961;28;20022;-69
2023/10/14 11:05:28;;;;;;;17.50;6.85;;;27.70;1.00;;;;;;5159692;28;20336;-68
2023/10/14 11:08:05;;;;;;;5.25;3.10;;;28.60;82.60;;;;;;5168626;28;20040;-67
2023/10/14 11:10:39;;;;;;;3.78;3.03;;;28.30;73.00;;;;;;5138282;28;20436;-67
2023/10/14 11:13:13;;;;;;;2.20;1.85;;;28.50;99.90;;;;;;5141024;28;20073;-68
2023/10/14 11:15:50;;;;;;;2.85;1.80;;;28.00;99.90;;;;;;5162882;28;20034;-66
2023/10/14 11:18:24;;;;;;;2.75;1.75;;;28.70;1.00;;;;;;5168880;28;20033;-71
2023/10/14 11:21:01;;;;;;;3.60;1.60;;;29.40;7.30;;;;;;5169027;28;20022;-69
2023/10/14 11:23:36;;;;;;;4.28;1.73;;;29.00;1.00;;;;;;5118608;28;20354;-68
2023/10/14 11:26:15;;;;;;;3.47;1.95;;;29.00;1.00;;;;;;5138496;28;20038;-68
2023/10/14 11:28:49;;;;;;;3.13;1.77;;;29.20;1.00;;;;;;5151478;28;20030;-68
2023/10/14 11:31:24;;;;;;;2.17;1.60;;;29.60;99.90;;;;;;5121289;28;20053;-68
2023/10/14 11:34:03;;;;;;;4.07;1.67;;;29.30;1.00;;;;;;5148620;28;20044;-68
2023/10/14 11:36:41;;;;;;;3.75;2.03;;;29.40;99.90;;;;;;5152916;28;20044;-69
2023/10/14 11:39:25;;;;;;;3.88;2.00;;;28.80;42.90;;;;;;5136460;28;20659;-66
2023/10/14 11:42:03;;;;;;;2.77;1.57;;;29.10;28.70;;;;;;5121101;28;20038;-65
2023/10/14 11:44:43;;;;;;;7.57;1.98;;;28.90;1.00;;;;;;5152012;28;20323;-70
2023/10/14 11:47:16;;;;;;;5.68;1.80;;;28.60;99.90;;;;;;5138050;28;20053;-67
2023/10/14 11:49:50;;;;;;;2.30;2.10;;;28.60;99.90;;;;;;5152152;28;20041;-68
2023/10/14 11:52:22;;;;;;;2.20;1.80;;;28.10;99.90;;;;;;5134549;28;20038;-68
2023/10/14 11:54:56;;;;;;;2.33;1.90;;;28.10;99.90;;;;;;5139009;28;20042;-67
2023/10/14 11:57:27;;;;;;;4.18;1.75;;;29.00;90.10;;;;;;5151655;28;20045;-70
2023/10/14 11:59:59;;;;;;;1.73;1.63;;;29.30;99.90;;;;;;5146885;28;20042;-68
2023/10/14 12:02:35;;;;;;;2.35;1.52;;;29.80;99.90;;;;;;5153760;28;20485;-70
2023/10/14 12:05:09;;;;;;;1.83;1.60;;;30.80;1.00;;;;;;5144043;28;20443;-68
2023/10/14 12:07:43;;;;;;;;;;;30.60;1.00;;;;;;5153685;28;20046;-68
2023/10/14 12:10:17;;;;;;;3.07;2.30;;;30.10;1.00;;;;;;5141402;28;19924;-69
2023/10/14 12:12:56;;;;;;;3.92;2.25;;;30.00;99.90;;;;;;5136385;28;20275;-69
2023/10/14 12:15:30;;;;;;;2.72;1.55;;;30.00;99.90;;;;;;5148317;28;20042;-66
2023/10/14 12:18:08;;;;;;;2.08;1.65;;;29.40;99.90;;;;;;5144800;28;20046;-68
2023/10/14 12:20:46;;;;;;;5.88;2.20;;;28.10;99.90;;;;;;5154943;28;20053;-68
2023/10/14 12:23:25;;;;;;;4.90;1.83;;;28.00;1.00;;;;;;5152112;28;20034;-68
2023/10/14 12:26:00;;;;;;;1.85;1.50;;;27.60;65.30;;;;;;5153101;28;20738;-68
2023/10/14 12:28:34;;;;;;;2.28;1.75;;;26.50;99.90;;;;;;5157519;28;20040;-67
2023/10/14 12:31:12;;;;;;;;;;;26.10;27.40;;;;;;5153125;28;20479;-66
2023/10/14 12:33:46;;;;;;;4.97;2.20;;;25.70;1.00;;;;;;5137400;28;20146;-67
2023/10/14 12:36:17;;;;;;;2.70;2.03;;;25.80;1.00;;;;;;5151257;28;20041;-67
2023/10/14 12:38:49;;;;;;;2.63;2.35;;;26.00;1.00;;;;;;5157212;28;20038;-67
2023/10/14 12:41:28;;;;;;;3.75;1.60;;;25.80;1.00;;;;;;5166773;28;20035;-66
2023/10/14 12:44:08;;;;;;;4.72;2.50;;;25.70;1.00;;;;;;5157994;28;20030;-67
2023/10/14 12:46:43;;;;;;;1.95;1.80;;;25.80;1.00;;;;;;5136587;28;20041;-68
2023/10/14 12:49:18;;;;;;;6.38;1.98;;;25.80;1.00;;;;;;5159353;28;20034;-68
2023/10/14 12:52:01;;;;;;;2.95;1.70;;;25.80;1.00;;;;;;5149098;28;20042;-67
2023/10/14 12:54:38;;;;;;;3.17;1.98;;;25.70;1.00;;;;;;5140676;28;20400;-67
2023/10/14 12:57:14;;;;;;;4.10;2.28;;;25.70;29.30;;;;;;5149634;28;20360;-66
2023/10/14 12:59:49;;;;;;;3.83;1.90;;;25.60;7.30;;;;;;5151136;28;20073;-65
2023/10/14 13:02:23;;;;;;;4.18;1.92;;;25.60;1.00;;;;;;5160079;28;20038;-67
2023/10/14 13:05:00;;;;;;;3.17;2.60;;;25.60;1.00;;;;;;5147988;28;20046;-66
2023/10/14 13:07:31;;;;;;;3.70;1.88;;;25.50;1.00;;;;;;5167676;28;20034;-65
2023/10/14 13:10:08;;;;;;;2.10;1.60;;;25.50;1.00;;;;;;5162378;28;20046;-66
2023/10/14 13:12:39;;;;;;;4.03;2.22;;;25.60;1.00;;;;;;5129713;28;20605;-67
2023/10/14 13:15:11;;;;;;;3.38;1.98;;;25.80;1.00;;;;;;5158245;28;20050;-67
2023/10/14 13:17:45;;;;;;;2.50;1.80;;;26.00;1.00;;;;;;5162222;28;20037;-67
2023/10/14 13:20:20;;;;;;;3.20;2.10;;;25.70;89.00;;;;;;5154234;28;20052;-67
2023/10/14 13:23:07;;;;;;;4.90;1.90;;;26.00;99.90;;;;;;5130502;28;20036;-67
2023/10/14 13:25:42;;;;;;;5.32;2.70;;;26.10;1.00;;;;;;5154130;28;20089;-67
2023/10/14 13:28:17;;;;;;;4.78;2.22;;;26.00;1.00;;;;;;5165974;28;20041;-67
2023/10/14 13:30:49;;;;;;;6.65;2.47;;;25.60;1.00;;;;;;5143519;28;20040;-68
2023/10/14 13:33:24;;;;;;;7.70;2.65;;;25.60;1.00;;;;;;5154208;28;20033;-66
2023/10/14 13:35:59;;;;;;;5.43;2.50;;;25.50;1.00;;;;;;5130297;28;20469;-67
2023/10/14 13:38:39;;;;;;;4.80;2.00;;;25.20;1.00;;;;;;5139524;28;20047;-68
2023/10/14 13:41:14;;;;;;;3.38;2.40;;;25.10;1.00;;;;;;5138554;28;20046;-66
2023/10/14 13:43:51;;;;;;;4.03;1.88;;;25.10;1.00;;;;;;5166377;28;20052;-67
2023/10/14 13:46:25;;;;;;;3.20;1.88;;;25.30;1.00;;;;;;5151173;28;20040;-66
2023/10/14 13:49:00;;;;;;;4.55;2.10;;;25.20;1.00;;;;;;5165940;28;20037;-67
2023/10/14 13:51:32;;;;;;;3.13;2.33;;;25.10;1.00;;;;;;5152483;28;20058;-67
2023/10/14 13:54:10;;;;;;;4.00;2.20;;;24.90;99.90;;;;;;5169819;28;20052;-67
2023/10/14 13:56:42;;;;;;;5.18;2.40;;;25.00;1.00;;;;;;5137114;28;20472;-67
2023/10/14 13:59:21;;;;;;;3.80;2.20;;;25.40;1.00;;;;;;5105201;28;20559;-67
2023/10/14 14:01:55;;;;;;;3.63;2.00;;;26.60;1.00;;;;;;5121852;28;20389;-67
2023/10/14 14:04:33;;;;;;;2.47;2.08;;;27.70;1.00;;;;;;5152988;28;20040;-67
2023/10/14 14:07:06;;;;;;;4.55;1.92;;;27.50;99.90;;;;;;5142539;28;20048;-66
2023/10/14 14:09:41;;;;;;;3.72;2.13;;;27.30;99.90;;;;;;5142678;28;20034;-67
2023/10/14 14:12:15;;;;;;;4.85;1.95;;;27.00;99.90;;;;;;5156183;28;20045;-66
2023/10/14 14:14:49;;;;;;;2.50;2.10;;;27.00;99.90;;;;;;5173527;28;20040;-66